Time;durP1;ratioP1;P1;durP2;ratioP2;P2;SDS_P1;SDS_P2;PMS_P1;PMS_P2;Temp;Humidity;BMP_temperature;BMP_pressure;BME280_temperature;BME280_humidity;BME280_pressure;Samples;Min_cycle;Max_cycle;Signal;HPM_P1;HPM_P2
2022/02/22 00:01:34;;;;;;;4.20;2.80;;;22.40;54.20;;;;;;5090672;28;20505;-82
2022/02/22 00:04:00;;;;;;;3.87;2.33;;;22.40;54.20;;;;;;5091152;28;20413;-82
2022/02/22 00:06:32;;;;;;;3.70;2.73;;;22.40;54.20;;;;;;5057090;28;20436;-82
2022/02/22 00:09:00;;;;;;;3.07;2.50;;;22.40;54.20;;;;;;5074955;28;20398;-82
2022/02/22 00:11:27;;;;;;;4.23;2.47;;;22.40;54.20;;;;;;5074618;28;20459;-82
2022/02/22 00:13:55;;;;;;;3.73;2.70;;;22.40;54.10;;;;;;5074565;28;20397;-82
2022/02/22 00:16:26;;;;;;;3.37;2.57;;;22.30;54.10;;;;;;5073270;28;20456;-82
2022/02/22 00:18:52;;;;;;;3.10;2.30;;;22.40;54.10;;;;;;5074157;28;20430;-82
2022/02/22 00:21:19;;;;;;;4.00;2.97;;;22.30;54.10;;;;;;5074317;28;20422;-82
2022/02/22 00:23:45;;;;;;;3.57;2.90;;;22.30;54.10;;;;;;5089757;28;20211;-82
2022/02/22 00:26:11;;;;;;;3.63;2.93;;;22.30;54.10;;;;;;5073642;28;20493;-82
2022/02/22 00:28:37;;;;;;;3.90;2.73;;;22.30;54.10;;;;;;5074052;28;20417;-82
2022/02/22 00:31:08;;;;;;;3.73;2.73;;;22.30;54.10;;;;;;5090067;28;20429;-82
2022/02/22 00:33:36;;;;;;;3.73;2.70;;;22.30;54.10;;;;;;5095546;28;20397;-82
2022/02/22 00:36:04;;;;;;;3.00;2.70;;;22.30;54.10;;;;;;5093237;28;20455;-82
2022/02/22 00:38:32;;;;;;;3.97;2.73;;;22.30;54.10;;;;;;5093931;28;20412;-82
2022/02/22 00:41:04;;;;;;;3.83;2.60;;;22.30;54.10;;;;;;5093209;28;20416;-82
2022/02/22 00:43:31;;;;;;;3.53;2.67;;;22.30;54.10;;;;;;5093090;28;20427;-82
2022/02/22 00:45:57;;;;;;;3.23;2.17;;;22.30;54.10;;;;;;5093140;28;20424;-83
2022/02/22 00:48:23;;;;;;;3.33;2.77;;;22.30;54.10;;;;;;5095148;28;20800;-83
2022/02/22 00:50:51;;;;;;;3.97;2.67;;;22.30;54.10;;;;;;5098435;28;20427;-83
2022/02/22 00:53:19;;;;;;;3.50;2.43;;;22.30;54.10;;;;;;5096675;28;20428;-82
2022/02/22 00:55:45;;;;;;;4.47;2.57;;;22.30;54.10;;;;;;5080441;28;20495;-82
2022/02/22 00:58:15;;;;;;;3.20;2.60;;;22.30;54.10;;;;;;5097760;28;20450;-82
2022/02/22 01:00:45;;;;;;;2.30;2.03;;;22.30;54.10;;;;;;5097265;28;20891;-82
2022/02/22 01:03:13;;;;;;;3.10;2.30;;;22.30;54.10;;;;;;5097866;28;20385;-82
2022/02/22 01:05:42;;;;;;;2.90;2.60;;;22.30;54.10;;;;;;5097547;28;20403;-82
2022/02/22 01:08:08;;;;;;;2.60;2.20;;;22.30;54.10;;;;;;5080206;28;20503;-82
2022/02/22 01:10:35;;;;;;;3.27;2.70;;;22.30;54.10;;;;;;5080118;28;20446;-82
2022/02/22 01:13:01;;;;;;;2.17;1.97;;;22.30;54.10;;;;;;5097630;28;20428;-82
2022/02/22 01:15:27;;;;;;;3.23;2.37;;;22.30;54.10;;;;;;5096645;28;20585;-82
2022/02/22 01:17:53;;;;;;;4.17;3.10;;;22.30;54.10;;;;;;5096657;28;20416;-82
2022/02/22 01:20:19;;;;;;;3.50;2.20;;;22.30;54.10;;;;;;5096359;28;20464;-82
2022/02/22 01:22:46;;;;;;;2.30;1.90;;;22.30;54.10;;;;;;5097043;28;20401;-82
2022/02/22 01:25:13;;;;;;;3.30;2.67;;;22.30;54.10;;;;;;5097533;28;20466;-82
2022/02/22 01:27:42;;;;;;;3.20;2.60;;;22.30;54.10;;;;;;5095798;28;20480;-82
2022/02/22 01:30:08;;;;;;;3.73;2.73;;;22.20;54.00;;;;;;5111069;28;20469;-82
2022/02/22 01:32:36;;;;;;;3.10;2.40;;;22.30;54.10;;;;;;5106454;28;20411;-82
2022/02/22 01:35:02;;;;;;;5.20;2.80;;;22.30;54.10;;;;;;5099319;28;20447;-82
2022/02/22 01:37:28;;;;;;;4.00;2.43;;;22.30;54.10;;;;;;5116006;28;20502;-82
2022/02/22 01:39:54;;;;;;;2.40;2.20;;;22.20;54.00;;;;;;5116391;28;20418;-82
2022/02/22 01:42:24;;;;;;;4.40;2.47;;;22.20;54.00;;;;;;5099211;28;20173;-82
2022/02/22 01:44:53;;;;;;;3.20;2.43;;;22.20;54.00;;;;;;5116241;28;20427;-82
2022/02/22 01:47:20;;;;;;;2.80;2.50;;;22.20;54.00;;;;;;5098703;28;20444;-82
2022/02/22 01:49:48;;;;;;;3.03;2.20;;;22.20;54.00;;;;;;5096753;28;20412;-82
2022/02/22 01:52:15;;;;;;;3.00;2.33;;;22.20;54.00;;;;;;5079007;28;20481;-82
2022/02/22 01:54:44;;;;;;;2.43;2.20;;;22.20;54.00;;;;;;5095689;28;20456;-82
2022/02/22 01:57:10;;;;;;;3.40;2.10;;;22.20;54.00;;;;;;5095046;28;20401;-82
2022/02/22 01:59:37;;;;;;;2.97;2.13;;;22.20;54.00;;;;;;5095422;28;20413;-82
2022/02/22 02:02:09;;;;;;;2.80;2.00;;;22.20;54.00;;;;;;5112167;28;20401;-82
2022/02/22 02:04:35;;;;;;;3.73;2.40;;;22.20;54.00;;;;;;5076439;28;20449;-82
2022/02/22 02:07:02;;;;;;;3.10;2.30;;;22.20;54.00;;;;;;5058880;28;20413;-82
2022/02/22 02:09:29;;;;;;;2.77;2.07;;;22.20;54.00;;;;;;5075248;28;20444;-82
2022/02/22 02:12:02;;;;;;;2.97;2.40;;;22.20;54.10;;;;;;5076015;28;20437;-81
2022/02/22 02:14:29;;;;;;;3.30;2.10;;;22.20;54.00;;;;;;5075530;28;20462;-81
2022/02/22 02:16:57;;;;;;;2.40;1.93;;;22.20;54.00;;;;;;5074410;28;20417;-81
2022/02/22 02:19:24;;;;;;;2.57;2.17;;;22.20;54.10;;;;;;5075339;28;20442;-81
2022/02/22 02:21:54;;;;;;;3.10;2.27;;;22.20;54.10;;;;;;5076386;28;20457;-81
2022/02/22 02:24:23;;;;;;;3.10;2.50;;;22.20;54.00;;;;;;5075750;28;20402;-82
2022/02/22 02:26:51;;;;;;;2.83;2.07;;;22.20;54.10;;;;;;5075814;28;20402;-82
2022/02/22 02:29:22;;;;;;;4.80;2.73;;;22.20;54.00;;;;;;5075115;28;20413;-82
2022/02/22 02:31:53;;;;;;;2.77;2.20;;;22.20;54.00;;;;;;5059442;28;20405;-82
2022/02/22 02:34:21;;;;;;;2.23;2.00;;;22.20;54.00;;;;;;5075680;28;20378;-82
2022/02/22 02:36:48;;;;;;;2.70;2.50;;;22.20;54.00;;;;;;5091938;28;20432;-81
2022/02/22 02:39:15;;;;;;;3.20;1.90;;;22.20;54.10;;;;;;5075423;28;20508;-81
2022/02/22 02:41:44;;;;;;;2.70;2.20;;;22.20;54.00;;;;;;5075535;28;20413;-82
2022/02/22 02:44:15;;;;;;;3.07;2.20;;;22.20;54.00;;;;;;5090891;28;20401;-81
2022/02/22 02:46:41;;;;;;;4.50;2.20;;;22.20;54.00;;;;;;5075489;28;20390;-82
2022/02/22 02:49:09;;;;;;;2.33;2.10;;;22.20;54.10;;;;;;5074851;28;20422;-82
2022/02/22 02:51:36;;;;;;;3.57;2.20;;;22.20;54.00;;;;;;5074956;28;20421;-82
2022/02/22 02:54:03;;;;;;;3.50;2.10;;;22.20;54.00;;;;;;5075204;28;20437;-82
2022/02/22 02:56:29;;;;;;;2.73;1.87;;;22.20;54.00;;;;;;5057228;28;20469;-82
2022/02/22 02:59:01;;;;;;;2.20;1.97;;;22.10;54.00;;;;;;5078005;28;20474;-82
2022/02/22 03:01:51;;;;;;;5.10;2.37;;;22.10;54.00;;;;;;5094018;28;20409;-82
2022/02/22 03:04:17;;;;;;;2.53;1.97;;;22.20;54.10;;;;;;5095223;28;20420;-82
2022/02/22 03:06:44;;;;;;;3.53;2.50;;;22.10;54.00;;;;;;5094935;28;20427;-82
2022/02/22 03:09:11;;;;;;;3.13;1.97;;;22.10;54.00;;;;;;5094825;28;20526;-82
2022/02/22 03:11:39;;;;;;;2.73;2.27;;;22.10;54.00;;;;;;5094229;28;20420;-82
2022/02/22 03:14:09;;;;;;;4.27;2.30;;;22.10;54.00;;;;;;5094738;28;20412;-82
2022/02/22 03:16:38;;;;;;;2.70;1.97;;;22.10;54.00;;;;;;5093730;28;20425;-82
2022/02/22 03:19:04;;;;;;;2.93;2.00;;;22.10;54.00;;;;;;5094880;28;20393;-82
2022/02/22 03:21:33;;;;;;;3.27;1.87;;;22.10;54.00;;;;;;5093811;28;20397;-82
2022/02/22 03:24:01;;;;;;;2.13;1.90;;;22.10;54.00;;;;;;5077490;28;20873;-82
2022/02/22 03:26:29;;;;;;;2.80;2.30;;;22.10;54.00;;;;;;5095362;28;20450;-82
2022/02/22 03:28:58;;;;;;;2.50;2.10;;;22.10;54.00;;;;;;5095064;28;20439;-82
2022/02/22 03:31:32;;;;;;;2.43;2.00;;;22.10;54.00;;;;;;5094600;28;20476;-82
2022/02/22 03:34:01;;;;;;;2.67;1.80;;;22.10;54.00;;;;;;5093985;28;20469;-82
2022/02/22 03:36:27;;;;;;;2.80;2.20;;;22.10;54.00;;;;;;5076921;28;20472;-82
2022/02/22 03:38:54;;;;;;;2.43;1.80;;;22.10;54.00;;;;;;5093547;28;20435;-82
2022/02/22 03:41:22;;;;;;;2.87;2.23;;;22.10;54.00;;;;;;5091892;28;20480;-82
2022/02/22 03:43:49;;;;;;;2.20;2.00;;;22.10;54.00;;;;;;5093815;28;20439;-82
2022/02/22 03:46:19;;;;;;;2.57;1.90;;;22.10;54.00;;;;;;5093722;28;20420;-82
2022/02/22 03:48:46;;;;;;;2.63;1.73;;;22.10;54.00;;;;;;5093373;28;20415;-82
2022/02/22 03:51:12;;;;;;;2.53;2.10;;;22.10;54.00;;;;;;5077322;28;20423;-82
2022/02/22 03:53:39;;;;;;;2.40;1.90;;;22.10;54.00;;;;;;5094826;28;20400;-82
2022/02/22 03:56:08;;;;;;;2.20;1.90;;;22.10;54.00;;;;;;5094164;28;20209;-82
2022/02/22 03:58:34;;;;;;;2.87;2.17;;;22.10;54.00;;;;;;5093297;28;20855;-82
2022/02/22 04:01:00;;;;;;;3.20;1.87;;;22.10;54.00;;;;;;5093456;28;20416;-83
2022/02/22 04:03:31;;;;;;;2.10;1.60;;;22.10;54.00;;;;;;5093447;28;20408;-81
2022/02/22 04:06:00;;;;;;;2.73;1.77;;;22.10;54.00;;;;;;5092784;28;20186;-82
2022/02/22 04:08:28;;;;;;;2.43;1.90;;;22.10;54.00;;;;;;5094380;28;20964;-82
2022/02/22 04:10:57;;;;;;;2.80;2.00;;;22.10;54.00;;;;;;5094442;28;20401;-82
2022/02/22 04:13:23;;;;;;;3.03;2.20;;;22.10;54.00;;;;;;5093498;28;20990;-81
2022/02/22 04:15:50;;;;;;;3.30;1.90;;;22.10;54.00;;;;;;5093135;28;20495;-81
2022/02/22 04:18:16;;;;;;;1.53;1.40;;;22.10;54.00;;;;;;5092951;28;20174;-81
2022/02/22 04:20:45;;;;;;;2.03;1.83;;;22.10;54.00;;;;;;5092733;28;20443;-81
2022/02/22 04:23:14;;;;;;;2.13;1.93;;;22.10;54.00;;;;;;5095057;28;20424;-81
2022/02/22 04:25:40;;;;;;;1.80;1.63;;;22.10;54.00;;;;;;5094634;28;20420;-81
2022/02/22 04:28:06;;;;;;;2.60;1.90;;;22.00;53.90;;;;;;5097869;28;20400;-81
2022/02/22 04:30:35;;;;;;;2.63;2.17;;;22.10;54.00;;;;;;5097890;28;20480;-81
2022/02/22 04:33:01;;;;;;;2.50;1.90;;;22.00;53.90;;;;;;5098120;28;20392;-82
2022/02/22 04:35:28;;;;;;;2.30;2.00;;;22.10;54.00;;;;;;5097332;28;20466;-82
2022/02/22 04:38:01;;;;;;;3.07;1.70;;;22.00;53.90;;;;;;5097304;28;20412;-82
2022/02/22 04:40:29;;;;;;;2.67;1.80;;;22.10;54.00;;;;;;5098046;28;20388;-82
2022/02/22 04:42:55;;;;;;;2.53;1.70;;;22.00;54.00;;;;;;5080727;28;20413;-82
2022/02/22 04:45:22;;;;;;;2.77;1.60;;;22.00;54.00;;;;;;5097379;28;20439;-82
2022/02/22 04:47:49;;;;;;;2.57;2.03;;;22.00;54.00;;;;;;5098188;28;20408;-81
2022/02/22 04:50:21;;;;;;;2.27;1.87;;;22.00;54.00;;;;;;5097187;28;20424;-81
2022/02/22 04:52:48;;;;;;;2.70;2.13;;;22.00;54.00;;;;;;5092610;28;20628;-81
2022/02/22 04:55:16;;;;;;;2.50;1.60;;;22.00;54.00;;;;;;5096520;28;20490;-82
2022/02/22 04:57:42;;;;;;;2.57;1.80;;;22.00;54.00;;;;;;5097495;28;20804;-81
2022/02/22 05:00:12;;;;;;;5.00;1.90;;;22.00;54.00;;;;;;5097144;28;20448;-81
2022/02/22 05:02:38;;;;;;;2.10;1.87;;;22.00;54.00;;;;;;5096894;28;20182;-81
2022/02/22 05:05:05;;;;;;;3.30;1.77;;;22.00;54.00;;;;;;5096481;28;20412;-81
2022/02/22 05:07:41;;;;;;;2.53;1.77;;;22.00;54.00;;;;;;5097128;28;20931;-81
2022/02/22 05:10:09;;;;;;;1.83;1.50;;;22.00;54.00;;;;;;5097729;28;20415;-81
2022/02/22 05:12:38;;;;;;;2.47;1.57;;;22.00;54.00;;;;;;5097239;28;20500;-81
2022/02/22 05:15:11;;;;;;;2.50;1.97;;;22.00;54.00;;;;;;5096762;28;20456;-81
2022/02/22 05:17:38;;;;;;;2.73;1.80;;;21.90;53.90;;;;;;5097560;28;20399;-83
2022/02/22 05:20:07;;;;;;;2.27;1.40;;;22.00;54.00;;;;;;5077891;28;20448;-82
2022/02/22 05:22:40;;;;;;;2.13;1.50;;;22.00;54.00;;;;;;5077099;28;20420;-82
2022/02/22 05:25:07;;;;;;;4.63;2.30;;;21.90;53.90;;;;;;5076473;28;20425;-82
2022/02/22 05:27:35;;;;;;;2.50;1.60;;;21.90;53.90;;;;;;5095937;28;20428;-82
2022/02/22 05:30:16;;;;;;;2.60;1.83;;;21.90;53.90;;;;;;5079394;28;20458;-82
2022/02/22 05:32:46;;;;;;;2.10;1.47;;;21.90;53.90;;;;;;5096538;28;20396;-82
2022/02/22 05:35:14;;;;;;;2.30;1.83;;;21.90;53.90;;;;;;5095211;28;20547;-82
2022/02/22 05:37:40;;;;;;;4.23;1.70;;;21.90;53.80;;;;;;5097154;28;20427;-82
2022/02/22 05:40:08;;;;;;;2.27;1.57;;;21.90;53.80;;;;;;5079575;28;20421;-82
2022/02/22 05:42:41;;;;;;;2.40;1.67;;;21.90;53.90;;;;;;5096855;28;20417;-82
2022/02/22 05:45:09;;;;;;;3.20;1.63;;;21.90;53.90;;;;;;5096080;28;20460;-82
2022/02/22 05:47:35;;;;;;;3.00;1.53;;;21.90;53.90;;;;;;5094305;28;20471;-82
2022/02/22 05:50:01;;;;;;;2.13;1.80;;;21.90;53.90;;;;;;5096777;28;20488;-82
2022/02/22 05:52:32;;;;;;;2.17;1.40;;;21.90;53.90;;;;;;5096471;28;20435;-82
2022/02/22 05:55:10;;;;;;;5.50;1.63;;;21.90;54.00;;;;;;5079787;28;20206;-81
2022/02/22 05:57:38;;;;;;;3.47;1.73;;;21.90;54.00;;;;;;5095809;28;20411;-84
2022/02/22 06:00:08;;;;;;;3.40;1.53;;;21.90;54.00;;;;;;5096371;28;20413;-82
2022/02/22 06:02:37;;;;;;;1.93;1.50;;;21.90;54.00;;;;;;5096328;28;20408;-82
2022/02/22 06:05:05;;;;;;;1.93;1.60;;;21.90;54.00;;;;;;5095324;28;20431;-84
2022/02/22 06:07:32;;;;;;;2.20;1.50;;;21.90;54.00;;;;;;5095778;28;20408;-82
2022/02/22 06:09:58;;;;;;;2.00;1.53;;;21.90;54.00;;;;;;5095087;28;20417;-82
2022/02/22 06:12:25;;;;;;;2.20;1.40;;;21.90;54.00;;;;;;5095773;28;20421;-82
2022/02/22 06:14:51;;;;;;;2.20;1.70;;;21.90;54.00;;;;;;5094421;28;20460;-82
2022/02/22 06:17:17;;;;;;;1.90;1.63;;;21.90;54.00;;;;;;5096513;28;20415;-82
2022/02/22 06:19:47;;;;;;;2.00;1.50;;;21.90;54.00;;;;;;5095318;28;20428;-82
2022/02/22 06:22:14;;;;;;;2.03;1.47;;;21.90;54.00;;;;;;5095640;28;20421;-82
2022/02/22 06:24:40;;;;;;;3.77;1.70;;;21.90;54.00;;;;;;5096112;28;20487;-82
2022/02/22 06:27:07;;;;;;;2.30;1.27;;;21.90;54.00;;;;;;5096793;28;20446;-82
2022/02/22 06:29:34;;;;;;;2.73;1.87;;;21.90;54.00;;;;;;5095749;28;20385;-82
2022/02/22 06:32:03;;;;;;;2.43;1.40;;;21.90;54.00;;;;;;5093898;28;20427;-82
2022/02/22 06:34:31;;;;;;;1.73;1.50;;;21.90;54.00;;;;;;5095447;28;20511;-82
2022/02/22 06:37:01;;;;;;;2.00;1.20;;;21.90;54.00;;;;;;5095693;28;20405;-83
2022/02/22 06:39:30;;;;;;;1.90;1.50;;;21.90;54.00;;;;;;5094737;28;20424;-82
2022/02/22 06:41:56;;;;;;;1.73;1.50;;;21.90;54.00;;;;;;5078523;28;20409;-81
2022/02/22 06:44:23;;;;;;;2.77;1.60;;;21.90;54.00;;;;;;5095096;28;20419;-81
2022/02/22 06:47:13;;;;;;;2.07;1.50;;;21.90;54.00;;;;;;5095390;28;20396;-81
2022/02/22 06:49:39;;;;;;;1.90;1.33;;;21.90;54.00;;;;;;5095442;28;20466;-81
2022/02/22 06:52:09;;;;;;;1.97;1.40;;;21.90;54.00;;;;;;5094754;28;20409;-81
2022/02/22 06:54:38;;;;;;;1.63;1.30;;;21.90;54.10;;;;;;5111338;28;20511;-82
2022/02/22 06:57:08;;;;;;;1.93;1.47;;;21.90;54.10;;;;;;5094845;28;20420;-82
2022/02/22 06:59:35;;;;;;;1.90;1.37;;;21.90;54.00;;;;;;5078801;28;20417;-82
2022/02/22 07:02:04;;;;;;;1.60;1.30;;;21.90;54.00;;;;;;5095452;28;20396;-81
2022/02/22 07:05:04;;;;;;;2.47;1.53;;;21.90;54.00;;;;;;5095198;28;20420;-82
2022/02/22 07:11:16;;;;;;;3.13;1.97;;;21.90;54.10;;;;;;5095333;28;20372;-82
2022/02/22 07:13:43;;;;;;;1.67;1.30;;;21.90;54.10;;;;;;5094152;28;20432;-82
2022/02/22 07:16:16;;;;;;;2.00;1.40;;;21.90;54.10;;;;;;5092752;28;20486;-82
2022/02/22 07:18:43;;;;;;;1.80;1.37;;;21.90;54.10;;;;;;5073203;28;20515;-82
2022/02/22 07:21:18;;;;;;;1.70;1.13;;;21.90;54.10;;;;;;5111186;28;20455;-82
2022/02/22 07:23:47;;;;;;;2.00;1.47;;;21.90;54.10;;;;;;5095230;28;20393;-82
2022/02/22 07:26:13;;;;;;;2.17;1.80;;;21.90;54.10;;;;;;5111555;28;20408;-82
2022/02/22 07:28:39;;;;;;;1.93;1.40;;;21.90;54.10;;;;;;5080653;28;20429;-82
2022/02/22 07:31:18;;;;;;;1.90;1.47;;;21.90;54.10;;;;;;5074396;28;20443;-82
2022/02/22 07:33:45;;;;;;;1.57;1.20;;;21.90;54.10;;;;;;5075375;28;20473;-82
2022/02/22 07:36:11;;;;;;;2.23;1.40;;;21.90;54.10;;;;;;5090557;28;21078;-82
2022/02/22 07:38:42;;;;;;;2.00;1.80;;;21.90;54.10;;;;;;5075262;28;20432;-82
2022/02/22 07:41:22;;;;;;;1.90;1.30;;;21.90;54.10;;;;;;5090692;28;20406;-82
2022/02/22 07:43:54;;;;;;;1.63;1.40;;;21.90;54.10;;;;;;5108121;28;20405;-82
2022/02/22 07:46:22;;;;;;;1.53;1.13;;;21.90;54.10;;;;;;5075227;28;20444;-82
2022/02/22 07:48:52;;;;;;;1.30;1.13;;;21.90;54.10;;;;;;5074255;28;20785;-82
2022/02/22 07:51:18;;;;;;;2.63;1.60;;;21.90;54.10;;;;;;5074488;28;20410;-82
2022/02/22 07:53:47;;;;;;;1.90;1.50;;;21.90;54.10;;;;;;5074489;28;20775;-82
2022/02/22 07:56:14;;;;;;;3.20;1.33;;;21.90;54.10;;;;;;5090204;28;20444;-82
2022/02/22 07:58:42;;;;;;;2.70;2.00;;;21.90;54.10;;;;;;5074353;28;20424;-82
2022/02/22 08:01:11;;;;;;;1.83;1.30;;;21.90;54.00;;;;;;5073537;28;20432;-82
2022/02/22 08:03:44;;;;;;;1.70;1.20;;;21.90;54.00;;;;;;5074575;28;20473;-82
2022/02/22 08:06:15;;;;;;;1.90;1.53;;;21.90;54.10;;;;;;5073671;28;20401;-82
2022/02/22 08:08:47;;;;;;;5.13;1.70;;;21.90;54.00;;;;;;5090956;28;20426;-82
2022/02/22 08:11:17;;;;;;;1.70;1.60;;;21.90;54.10;;;;;;5074134;28;20429;-82
2022/02/22 08:13:45;;;;;;;1.77;1.40;;;21.90;54.10;;;;;;5073157;28;20916;-82
2022/02/22 08:16:14;;;;;;;2.03;1.43;;;22.00;54.10;;;;;;5073383;28;20472;-82
2022/02/22 08:18:40;;;;;;;1.93;1.07;;;22.00;54.10;;;;;;5070800;28;20425;-82
2022/02/22 08:21:14;;;;;;;1.53;1.43;;;22.00;54.10;;;;;;5074228;28;20425;-82
2022/02/22 08:23:40;;;;;;;4.13;1.67;;;22.00;54.10;;;;;;5090495;28;20426;-82
2022/02/22 08:26:07;;;;;;;1.60;1.30;;;22.00;54.10;;;;;;5089902;28;20421;-82
2022/02/22 08:28:38;;;;;;;1.50;1.20;;;22.00;54.10;;;;;;5074887;28;20401;-82
2022/02/22 08:31:12;;;;;;;1.67;1.50;;;22.00;54.10;;;;;;5072732;28;20425;-82
2022/02/22 08:33:40;;;;;;;1.70;1.43;;;22.00;54.10;;;;;;5087455;28;20422;-82
2022/02/22 08:36:08;;;;;;;2.33;1.20;;;22.00;54.10;;;;;;5073024;28;20464;-82
2022/02/22 08:38:54;;;;;;;1.63;1.33;;;22.00;54.10;;;;;;5090067;28;20419;-82
2022/02/22 08:41:25;;;;;;;2.30;1.47;;;22.00;54.10;;;;;;5072896;28;20414;-82
2022/02/22 08:43:57;;;;;;;1.40;1.00;;;22.00;54.10;;;;;;5073607;28;20422;-82
2022/02/22 08:46:26;;;;;;;2.40;1.50;;;22.00;54.20;;;;;;5056945;28;20420;-82
2022/02/22 08:48:52;;;;;;;1.77;1.20;;;22.00;54.20;;;;;;5073497;28;20417;-82
2022/02/22 08:51:22;;;;;;;1.83;1.00;;;22.00;54.20;;;;;;5073407;28;20409;-82
2022/02/22 08:54:02;;;;;;;;;;;;;;;;;;;;;
2022/02/22 08:56:30;;;;;;;2.60;1.30;;;22.00;54.20;;;;;;5074247;28;20449;-82
2022/02/22 08:59:00;;;;;;;3.20;1.50;;;22.00;54.20;;;;;;5072582;28;20422;-82
2022/02/22 09:01:29;;;;;;;2.30;1.73;;;22.00;54.20;;;;;;5089664;28;20445;-82
2022/02/22 09:04:03;;;;;;;1.30;1.07;;;22.00;54.20;;;;;;5073459;28;20484;-82
2022/02/22 09:06:30;;;;;;;2.90;1.40;;;22.00;54.20;;;;;;5106713;28;20406;-82
2022/02/22 09:08:59;;;;;;;1.33;1.20;;;22.00;54.20;;;;;;5074907;28;20406;-82
2022/02/22 09:11:32;;;;;;;1.50;1.20;;;22.00;54.20;;;;;;5076929;28;20417;-82
2022/02/22 09:13:59;;;;;;;1.70;1.50;;;22.00;54.20;;;;;;5093121;28;20425;-82
2022/02/22 09:16:27;;;;;;;2.17;1.50;;;22.00;54.20;;;;;;5077741;28;20457;-82
2022/02/22 09:18:54;;;;;;;1.70;1.30;;;22.00;54.20;;;;;;5110647;28;20413;-82
2022/02/22 09:21:20;;;;;;;2.00;1.30;;;22.00;54.20;;;;;;5077381;28;20417;-83
2022/02/22 09:23:47;;;;;;;1.53;1.07;;;22.00;54.20;;;;;;5077330;28;20405;-82
2022/02/22 09:26:14;;;;;;;1.47;1.10;;;22.00;54.20;;;;;;5076754;28;20414;-82
2022/02/22 09:28:45;;;;;;;2.03;1.33;;;22.00;54.20;;;;;;5092841;28;20406;-82
2022/02/22 09:31:12;;;;;;;2.07;1.30;;;22.00;54.20;;;;;;5112661;28;20408;-82
2022/02/22 09:33:37;;;;;;;1.70;1.47;;;22.00;54.20;;;;;;5116662;28;20419;-82
2022/02/22 09:36:05;;;;;;;2.23;1.30;;;22.00;54.20;;;;;;5117194;28;20455;-82
2022/02/22 09:38:31;;;;;;;2.17;1.23;;;22.00;54.20;;;;;;5118011;28;20404;-82
2022/02/22 09:41:04;;;;;;;1.73;1.20;;;22.00;54.20;;;;;;5117715;28;20408;-82
2022/02/22 09:43:34;;;;;;;1.93;1.23;;;22.00;54.20;;;;;;5117798;28;20403;-82
2022/02/22 09:46:04;;;;;;;1.50;1.20;;;22.00;54.20;;;;;;5100647;28;20412;-82
2022/02/22 09:48:30;;;;;;;1.70;1.07;;;22.00;54.20;;;;;;5103513;28;20480;-82
2022/02/22 09:50:56;;;;;;;1.67;1.10;;;22.00;54.20;;;;;;5079858;28;20700;-82
2022/02/22 09:53:24;;;;;;;2.03;1.50;;;22.00;54.80;;;;;;5085491;28;20454;-82
2022/02/22 09:55:50;;;;;;;2.23;1.33;;;22.00;54.20;;;;;;5076725;28;20468;-82
2022/02/22 09:58:20;;;;;;;2.00;1.40;;;22.00;54.20;;;;;;5093850;28;20401;-82
2022/02/22 10:00:58;;;;;;;1.60;1.40;;;22.00;54.20;;;;;;5109767;28;20453;-82
2022/02/22 10:03:31;;;;;;;1.90;1.17;;;22.00;54.20;;;;;;5117186;28;20398;-82
2022/02/22 10:06:00;;;;;;;1.43;1.20;;;22.00;54.20;;;;;;5116397;28;20424;-82
2022/02/22 10:08:34;;;;;;;1.73;1.40;;;22.00;54.20;;;;;;5113144;28;20423;-82
2022/02/22 10:11:09;;;;;;;1.17;0.97;;;22.00;54.20;;;;;;5097084;28;20408;-82
2022/02/22 10:13:45;;;;;;;1.87;1.20;;;22.00;54.20;;;;;;5096456;28;20468;-82
2022/02/22 10:16:14;;;;;;;1.53;1.10;;;22.00;54.20;;;;;;5096053;28;20460;-82
2022/02/22 10:18:49;;;;;;;1.53;1.27;;;22.00;54.20;;;;;;5090492;28;20451;-82
2022/02/22 10:21:55;;;;;;;1.77;1.20;;;22.00;54.30;;;;;;5094210;28;20447;-82
2022/02/22 10:24:22;;;;;;;1.30;1.10;;;22.00;54.30;;;;;;5094946;28;20385;-82
2022/02/22 10:26:58;;;;;;;1.27;0.97;;;22.00;54.20;;;;;;5109406;28;20434;-81
2022/02/22 10:29:25;;;;;;;1.10;1.00;;;22.00;54.20;;;;;;5104436;28;20416;-82
2022/02/22 10:31:51;;;;;;;1.83;1.27;;;22.00;54.20;;;;;;5078129;28;20440;-82
2022/02/22 10:34:31;;;;;;;1.67;1.20;;;22.00;54.20;;;;;;5103355;28;20412;-83
2022/02/22 10:37:00;;;;;;;1.50;1.30;;;22.00;54.20;;;;;;5115433;28;20473;-82
2022/02/22 10:39:26;;;;;;;2.60;1.40;;;22.00;54.20;;;;;;5097128;28;20416;-82
2022/02/22 10:41:56;;;;;;;1.77;1.10;;;22.00;54.20;;;;;;5099853;28;20423;-82
2022/02/22 10:44:33;;;;;;;2.17;1.57;;;22.00;54.20;;;;;;5114947;28;20432;-82
2022/02/22 10:47:00;;;;;;;1.80;1.27;;;22.00;54.20;;;;;;5115298;28;20427;-82
2022/02/22 10:49:32;;;;;;;2.13;1.30;;;22.00;54.20;;;;;;5095897;28;20428;-82
2022/02/22 10:52:07;;;;;;;1.27;0.93;;;22.00;54.20;;;;;;5094209;28;20419;-83
2022/02/22 10:54:34;;;;;;;1.57;1.10;;;22.00;54.20;;;;;;5084105;28;20421;-82
2022/02/22 10:57:02;;;;;;;1.67;1.00;;;22.00;54.20;;;;;;5088840;28;20429;-84
2022/02/22 10:59:31;;;;;;;1.30;1.03;;;22.00;54.20;;;;;;5113120;28;20422;-83
2022/02/22 11:02:00;;;;;;;1.40;1.10;;;22.00;54.20;;;;;;5113605;28;20412;-83
2022/02/22 11:04:26;;;;;;;1.50;1.27;;;22.00;54.10;;;;;;5102320;28;20448;-83
2022/02/22 11:06:52;;;;;;;1.50;1.17;;;22.00;54.20;;;;;;5101479;28;20456;-83
2022/02/22 11:09:20;;;;;;;2.10;1.50;;;22.00;54.10;;;;;;5095249;28;20421;-83
2022/02/22 11:12:00;;;;;;;3.00;1.60;;;22.10;54.20;;;;;;5096910;28;20182;-83
2022/02/22 11:14:28;;;;;;;2.17;1.47;;;22.00;54.10;;;;;;5094647;28;20424;-83
2022/02/22 11:16:58;;;;;;;4.53;1.93;;;22.00;54.10;;;;;;5089088;28;20401;-83
2022/02/22 11:19:33;;;;;;;2.03;1.50;;;22.00;54.10;;;;;;5084079;28;20497;-83
2022/02/22 11:22:20;;;;;;;3.63;2.17;;;22.10;54.20;;;;;;5084730;28;20444;-83
2022/02/22 11:24:49;;;;;;;3.70;2.60;;;22.10;54.20;;;;;;5089733;28;20431;-83
2022/02/22 11:27:38;;;;;;;3.10;2.77;;;22.00;54.10;;;;;;5090628;28;20492;-83
2022/02/22 11:30:09;;;;;;;5.07;3.20;;;22.10;54.20;;;;;;5091379;28;20416;-83
2022/02/22 11:32:37;;;;;;;7.47;4.17;;;22.00;54.20;;;;;;5092223;28;20393;-83
2022/02/22 11:35:12;;;;;;;4.67;3.60;;;22.00;54.20;;;;;;5092414;28;20452;-83
2022/02/22 11:37:38;;;;;;;5.33;3.47;;;22.00;54.20;;;;;;5091381;28;20434;-86
2022/02/22 11:40:06;;;;;;;6.03;3.87;;;22.00;54.20;;;;;;5091281;28;20437;-84
2022/02/22 11:42:32;;;;;;;6.83;3.80;;;22.00;54.20;;;;;;5091466;28;20998;-83
2022/02/22 11:45:09;;;;;;;5.80;3.70;;;22.00;54.10;;;;;;5092547;28;20412;-83
2022/02/22 11:47:38;;;;;;;9.10;4.40;;;22.00;54.10;;;;;;5090924;28;20469;-83
2022/02/22 11:50:12;;;;;;;6.07;4.17;;;22.00;54.10;;;;;;5090964;28;20411;-83
2022/02/22 11:56:00;;;;;;;6.37;4.03;;;22.00;54.20;;;;;;5088412;28;20464;-84
2022/02/22 11:58:41;;;;;;;9.60;4.63;;;22.00;54.20;;;;;;5092094;28;20405;-83
2022/02/22 12:01:20;;;;;;;7.20;4.47;;;22.00;54.20;;;;;;5091383;28;20443;-83
2022/02/22 12:03:49;;;;;;;7.00;4.40;;;22.10;54.30;;;;;;5091640;28;20427;-83
2022/02/22 12:06:23;;;;;;;6.90;4.40;;;22.00;54.20;;;;;;5092561;28;20428;-83
2022/02/22 12:08:51;;;;;;;8.70;4.27;;;22.00;54.20;;;;;;5092519;28;20403;-83
2022/02/22 12:11:23;;;;;;;6.33;3.93;;;22.00;54.20;;;;;;5092025;28;20846;-83
2022/02/22 12:13:52;;;;;;;6.20;4.40;;;22.00;54.20;;;;;;5091561;28;20431;-83
2022/02/22 12:16:21;;;;;;;6.27;4.23;;;22.00;54.10;;;;;;5092067;28;20475;-83
2022/02/22 12:18:55;;;;;;;5.23;3.80;;;22.00;54.10;;;;;;5091215;28;20436;-83
2022/02/22 12:21:23;;;;;;;7.33;3.97;;;22.10;54.20;;;;;;5091507;28;20409;-83
2022/02/22 12:23:53;;;;;;;7.27;4.20;;;22.10;54.20;;;;;;5092226;28;20405;-83
2022/02/22 12:26:23;;;;;;;8.73;4.63;;;22.10;54.20;;;;;;5091170;28;20494;-83
2022/02/22 12:28:51;;;;;;;6.97;3.87;;;22.10;54.20;;;;;;5091205;28;20447;-83
2022/02/22 12:31:38;;;;;;;10.13;4.20;;;22.10;54.20;;;;;;5091360;28;20462;-82
2022/02/22 12:34:14;;;;;;;4.77;3.80;;;22.10;54.20;;;;;;5091119;28;20439;-82
2022/02/22 12:36:46;;;;;;;7.70;3.80;;;22.10;54.20;;;;;;5091008;28;20957;-83
2022/02/22 12:39:16;;;;;;;6.20;3.70;;;22.10;54.20;;;;;;5090502;28;20415;-83
2022/02/22 12:41:50;;;;;;;9.33;4.20;;;22.10;54.20;;;;;;5091679;28;20384;-83
2022/02/22 12:44:19;;;;;;;7.40;4.57;;;22.10;54.20;;;;;;5093899;28;20404;-83
2022/02/22 12:46:49;;;;;;;10.33;3.90;;;22.10;54.20;;;;;;5096267;28;20412;-83
2022/02/22 12:49:20;;;;;;;7.77;4.10;;;22.10;54.20;;;;;;5095287;28;20439;-83
2022/02/22 12:51:48;;;;;;;5.43;4.03;;;22.10;54.20;;;;;;5096743;28;20480;-83
2022/02/22 12:54:22;;;;;;;5.57;3.20;;;22.10;54.20;;;;;;5096018;28;20412;-83
2022/02/22 12:56:53;;;;;;;6.13;4.07;;;22.10;54.20;;;;;;5095961;28;20385;-84
2022/02/22 12:59:23;;;;;;;10.30;4.50;;;22.10;54.20;;;;;;5094956;28;20408;-83
2022/02/22 13:01:50;;;;;;;7.37;4.00;;;22.10;54.10;;;;;;5094445;28;20412;-83
2022/02/22 13:04:22;;;;;;;9.37;4.80;;;22.10;54.10;;;;;;5094121;28;20412;-83
2022/02/22 13:06:58;;;;;;;5.93;4.03;;;22.10;54.10;;;;;;5094709;28;20407;-84